Terminal Aerodrome Forecast
Issued by NWS Sterling, VA

Current Version | Previous Version | Graphics & Text | Print | Product List | Glossary On
Versions: 1 2 3 4 5 6 7 8 9 10 11 12 13 14 15 16 17 18 19 20 21
000
FTUS41 KLWX 270546
TAFMRB
TAF
KMRB 270546Z 2706/2806 18004KT P6SM VCTS SCT050CB BKN090
     FM271000 00000KT 5SM BR SCT050 BKN090
     FM271300 00000KT P6SM BKN080
     FM271900 VRB03KT P6SM -SHRA VCTS BKN070CB
     FM280400 VRB03KT P6SM FEW050 SCT200=

USA.gov is the U.S. government's official web portal to all federal, state and local government web resources and services.